Terminal Aerodrome Forecast
Issued by NWS Charleston, WV

Current Version | Previous Version | Text Only | Print | Product List | Glossary Off
Versions: 1 2 3 4 5 6 7 8 9 10 11 12 13 14 15 16 17 18 19 20 21 22

802
FTUS41 KRLX 120531
TAFPKB
TAF
KPKB 120531Z 1206/1306 00000KT 3SM BR BKN250
      TEMPO 1206/1208 2SM BR
     FM120800 25004KT P6SM OVC250
     FM121600 26008KT 5SM -SHSN OVC025
     FM130000 27010G19KT 5SM -SHSN OVC020
     FM130300 29011G21KT 2SM -SHSN BR BKN025
     FM130500 30012G22KT 6SM -SHSN BKN030=

USA.gov is the U.S. government's official web portal to all federal, state and local government web resources and services.